首页
METAR-TAF:

METAR-TAF

机场 :

布達佩斯李斯特·費倫茨國際機場

布达佩斯, 匈牙利

纬度: 47-26N, 经度: 019-16E, 海拔: 151米

当前天气观测

该预报发布于23分钟前的15:30 UTC
风速8节,风向南转南东,在东南南转西南之间变化
温度 3°C
湿度 93%
气压 1015 hPa
能見度: 2500
多云层高于300英尺
轻雾

METAR: LHBP 081530Z 16008KT 130V200 2500 BR BKN003 03/02 Q1015 TEMPO 0500 FG VV001

时间: 16:53 (15:53 UTC)

预报

该预报发布于4小时和38分钟前的11:15 UTC
预报有效从08日的 12点(UTC)到 09日的 12点(UTC)
风速5节,风向
能见度10公里或以上
1500米以下无云,无积雨云
成为
从 08日的 14点(UTC)到 08日的 16点(UTC)
能見度: 3000
轻雾
短暂存在
从 08日的 16点(UTC)到 09日的 09点(UTC)
风速3节,风向东转东南
能見度: 1200
多云层高于300英尺
轻雾
几率 30% :
短暂存在
从 08日的 20点(UTC)到 09日的 09点(UTC)
能見度: 0500
多云层高于100英尺
阴天层高于1000英尺
小雨, 雾
成为
从 09日的 09点(UTC)到 09日的 11点(UTC)
能見度: 5000
轻雾

TAF: LHBP 081115Z 0812/0912 18005KT CAVOK BECMG 0814/0816 3000 BR TEMPO 0816/0909 11003KT 1200 BR BKN003 PROB30 TEMPO 0820/0909 0500 -RA FG BKN001 OVC010 BECMG 0909/0911 5000 BR

超过4000个机场的气象观测和天气预报(METAR&TAF报告)。

可查询的气象台以黄色和红色小点在地图上表示。

将鼠标移到小点上方,可查看气象台名称。

然后点击查看天气观测和预报。

如需切换地图:点击带黑十字的绿色按钮放大地图;点击带横线的绿色按钮缩小地图;或者点击绿色箭头查看邻近地区的地图。


METAR-TAF: